sensor_id;sensor_type;location;lat;lon;timestamp;P1;durP1;ratioP1;P2;durP2;ratioP2
70850;SDS011;58475;49.662;9.636;2024-03-08T00:01:13;7.03;;;4.10;;
70850;SDS011;58475;49.662;9.636;2024-03-08T00:03:39;7.85;;;4.00;;
70850;SDS011;58475;49.662;9.636;2024-03-08T00:06:05;7.00;;;3.83;;
70850;SDS011;58475;49.662;9.636;2024-03-08T00:08:31;7.65;;;4.10;;
70850;SDS011;58475;49.662;9.636;2024-03-08T00:10:56;9.45;;;4.22;;
70850;SDS011;58475;49.662;9.636;2024-03-08T00:13:21;7.97;;;4.20;;
70850;SDS011;58475;49.662;9.636;2024-03-08T00:15:47;7.30;;;4.32;;
70850;SDS011;58475;49.662;9.636;2024-03-08T00:18:12;8.27;;;3.50;;
70850;SDS011;58475;49.662;9.636;2024-03-08T00:20:38;6.88;;;3.88;;
70850;SDS011;58475;49.662;9.636;2024-03-08T00:23:03;5.88;;;3.50;;
70850;SDS011;58475;49.662;9.636;2024-03-08T00:25:29;6.53;;;3.67;;
70850;SDS011;58475;49.662;9.636;2024-03-08T00:27:54;6.60;;;3.30;;
70850;SDS011;58475;49.662;9.636;2024-03-08T00:30:21;6.50;;;3.90;;
70850;SDS011;58475;49.662;9.636;2024-03-08T00:32:48;6.35;;;3.40;;
70850;SDS011;58475;49.662;9.636;2024-03-08T00:35:14;8.27;;;4.07;;
70850;SDS011;58475;49.662;9.636;2024-03-08T00:37:39;7.38;;;4.00;;
70850;SDS011;58475;49.662;9.636;2024-03-08T00:40:05;5.88;;;3.30;;
70850;SDS011;58475;49.662;9.636;2024-03-08T00:42:32;7.47;;;4.38;;
70850;SDS011;58475;49.662;9.636;2024-03-08T00:44:58;8.27;;;4.55;;
70850;SDS011;58475;49.662;9.636;2024-03-08T00:47:23;8.02;;;3.92;;
70850;SDS011;58475;49.662;9.636;2024-03-08T00:49:49;5.32;;;3.70;;
70850;SDS011;58475;49.662;9.636;2024-03-08T00:52:14;6.28;;;3.30;;
70850;SDS011;58475;49.662;9.636;2024-03-08T00:54:39;5.70;;;3.63;;
70850;SDS011;58475;49.662;9.636;2024-03-08T00:57:05;6.28;;;3.50;;
70850;SDS011;58475;49.662;9.636;2024-03-08T00:59:31;6.18;;;3.50;;
70850;SDS011;58475;49.662;9.636;2024-03-08T01:01:58;7.10;;;4.22;;
70850;SDS011;58475;49.662;9.636;2024-03-08T01:04:24;5.28;;;3.20;;
70850;SDS011;58475;49.662;9.636;2024-03-08T01:06:51;5.80;;;4.45;;
70850;SDS011;58475;49.662;9.636;2024-03-08T01:09:16;6.55;;;3.70;;
70850;SDS011;58475;49.662;9.636;2024-03-08T01:11:42;5.22;;;3.30;;
70850;SDS011;58475;49.662;9.636;2024-03-08T01:14:08;9.43;;;3.85;;
70850;SDS011;58475;49.662;9.636;2024-03-08T01:16:33;7.38;;;3.88;;
70850;SDS011;58475;49.662;9.636;2024-03-08T01:18:59;6.63;;;3.72;;
70850;SDS011;58475;49.662;9.636;2024-03-08T01:21:24;7.00;;;4.35;;
70850;SDS011;58475;49.662;9.636;2024-03-08T01:23:49;5.38;;;3.60;;
70850;SDS011;58475;49.662;9.636;2024-03-08T01:26:15;6.07;;;3.22;;
70850;SDS011;58475;49.662;9.636;2024-03-08T01:28:40;5.70;;;3.50;;
70850;SDS011;58475;49.662;9.636;2024-03-08T01:31:05;4.93;;;2.95;;
70850;SDS011;58475;49.662;9.636;2024-03-08T01:33:31;7.40;;;3.72;;
70850;SDS011;58475;49.662;9.636;2024-03-08T01:35:57;5.00;;;2.47;;
70850;SDS011;58475;49.662;9.636;2024-03-08T01:38:23;5.55;;;2.85;;
70850;SDS011;58475;49.662;9.636;2024-03-08T01:40:48;7.68;;;4.43;;
70850;SDS011;58475;49.662;9.636;2024-03-08T01:43:35;6.82;;;3.70;;
70850;SDS011;58475;49.662;9.636;2024-03-08T01:46:01;6.03;;;3.80;;
70850;SDS011;58475;49.662;9.636;2024-03-08T01:48:27;5.72;;;3.08;;
70850;SDS011;58475;49.662;9.636;2024-03-08T01:50:54;6.47;;;3.33;;
70850;SDS011;58475;49.662;9.636;2024-03-08T01:53:21;8.88;;;4.00;;
70850;SDS011;58475;49.662;9.636;2024-03-08T01:55:48;6.93;;;3.78;;
70850;SDS011;58475;49.662;9.636;2024-03-08T01:58:14;8.00;;;3.83;;
70850;SDS011;58475;49.662;9.636;2024-03-08T02:00:44;5.32;;;3.65;;
70850;SDS011;58475;49.662;9.636;2024-03-08T02:03:11;4.63;;;3.28;;
70850;SDS011;58475;49.662;9.636;2024-03-08T02:05:37;5.05;;;2.65;;
70850;SDS011;58475;49.662;9.636;2024-03-08T02:08:05;7.03;;;4.40;;
70850;SDS011;58475;49.662;9.636;2024-03-08T02:10:32;6.80;;;4.20;;
70850;SDS011;58475;49.662;9.636;2024-03-08T02:12:58;7.45;;;3.65;;
70850;SDS011;58475;49.662;9.636;2024-03-08T02:15:26;5.65;;;3.22;;
70850;SDS011;58475;49.662;9.636;2024-03-08T02:17:51;5.30;;;3.10;;
70850;SDS011;58475;49.662;9.636;2024-03-08T02:20:18;5.72;;;3.33;;
70850;SDS011;58475;49.662;9.636;2024-03-08T02:22:44;5.30;;;3.25;;
70850;SDS011;58475;49.662;9.636;2024-03-08T02:25:10;5.90;;;3.40;;
70850;SDS011;58475;49.662;9.636;2024-03-08T02:27:36;5.13;;;3.45;;
70850;SDS011;58475;49.662;9.636;2024-03-08T02:30:01;6.47;;;3.45;;
70850;SDS011;58475;49.662;9.636;2024-03-08T02:32:27;8.52;;;3.17;;
70850;SDS011;58475;49.662;9.636;2024-03-08T02:34:56;4.97;;;3.42;;
70850;SDS011;58475;49.662;9.636;2024-03-08T02:37:24;8.95;;;3.15;;
70850;SDS011;58475;49.662;9.636;2024-03-08T02:39:50;6.32;;;3.67;;
70850;SDS011;58475;49.662;9.636;2024-03-08T02:42:15;5.68;;;3.08;;
70850;SDS011;58475;49.662;9.636;2024-03-08T02:44:43;6.88;;;3.45;;
70850;SDS011;58475;49.662;9.636;2024-03-08T02:47:09;6.03;;;3.28;;
70850;SDS011;58475;49.662;9.636;2024-03-08T02:49:35;5.28;;;3.47;;
70850;SDS011;58475;49.662;9.636;2024-03-08T02:52:02;6.53;;;3.65;;
70850;SDS011;58475;49.662;9.636;2024-03-08T02:54:27;5.53;;;3.55;;
70850;SDS011;58475;49.662;9.636;2024-03-08T02:56:53;5.30;;;3.40;;
70850;SDS011;58475;49.662;9.636;2024-03-08T02:59:18;5.82;;;4.13;;
70850;SDS011;58475;49.662;9.636;2024-03-08T03:01:44;7.07;;;4.05;;
70850;SDS011;58475;49.662;9.636;2024-03-08T03:04:09;6.65;;;3.45;;
70850;SDS011;58475;49.662;9.636;2024-03-08T03:06:34;5.78;;;3.22;;
70850;SDS011;58475;49.662;9.636;2024-03-08T03:09:00;5.22;;;3.28;;
70850;SDS011;58475;49.662;9.636;2024-03-08T03:11:26;7.57;;;3.72;;
70850;SDS011;58475;49.662;9.636;2024-03-08T03:13:51;6.50;;;3.47;;
70850;SDS011;58475;49.662;9.636;2024-03-08T03:16:20;8.23;;;3.65;;
70850;SDS011;58475;49.662;9.636;2024-03-08T03:18:46;3.95;;;2.95;;
70850;SDS011;58475;49.662;9.636;2024-03-08T03:21:12;5.68;;;3.53;;
70850;SDS011;58475;49.662;9.636;2024-03-08T03:23:41;9.30;;;4.85;;
70850;SDS011;58475;49.662;9.636;2024-03-08T03:28:38;5.18;;;3.30;;
70850;SDS011;58475;49.662;9.636;2024-03-08T03:31:06;4.70;;;3.00;;
70850;SDS011;58475;49.662;9.636;2024-03-08T03:33:32;3.72;;;2.63;;
70850;SDS011;58475;49.662;9.636;2024-03-08T03:35:59;5.20;;;3.45;;
70850;SDS011;58475;49.662;9.636;2024-03-08T03:38:26;4.75;;;3.03;;
70850;SDS011;58475;49.662;9.636;2024-03-08T03:40:52;5.22;;;3.05;;
70850;SDS011;58475;49.662;9.636;2024-03-08T03:43:21;7.13;;;3.58;;
70850;SDS011;58475;49.662;9.636;2024-03-08T03:45:46;4.20;;;3.25;;
70850;SDS011;58475;49.662;9.636;2024-03-08T03:48:12;4.80;;;3.35;;
70850;SDS011;58475;49.662;9.636;2024-03-08T03:50:37;3.65;;;2.65;;
70850;SDS011;58475;49.662;9.636;2024-03-08T03:53:03;4.93;;;3.13;;
70850;SDS011;58475;49.662;9.636;2024-03-08T03:55:29;6.35;;;2.92;;
70850;SDS011;58475;49.662;9.636;2024-03-08T03:57:54;5.75;;;2.88;;
70850;SDS011;58475;49.662;9.636;2024-03-08T04:00:20;4.95;;;3.53;;
70850;SDS011;58475;49.662;9.636;2024-03-08T04:02:45;6.30;;;3.60;;
70850;SDS011;58475;49.662;9.636;2024-03-08T04:05:12;6.40;;;3.85;;
70850;SDS011;58475;49.662;9.636;2024-03-08T04:07:38;7.15;;;4.28;;
70850;SDS011;58475;49.662;9.636;2024-03-08T04:10:04;6.20;;;4.30;;
70850;SDS011;58475;49.662;9.636;2024-03-08T04:12:32;6.00;;;2.72;;
70850;SDS011;58475;49.662;9.636;2024-03-08T04:14:58;6.45;;;3.13;;
70850;SDS011;58475;49.662;9.636;2024-03-08T04:17:23;6.68;;;3.63;;
70850;SDS011;58475;49.662;9.636;2024-03-08T04:19:49;8.02;;;4.32;;
70850;SDS011;58475;49.662;9.636;2024-03-08T04:22:15;6.47;;;3.85;;
70850;SDS011;58475;49.662;9.636;2024-03-08T04:24:42;5.72;;;3.47;;
70850;SDS011;58475;49.662;9.636;2024-03-08T04:27:08;4.63;;;3.00;;
70850;SDS011;58475;49.662;9.636;2024-03-08T04:29:34;4.85;;;3.45;;
70850;SDS011;58475;49.662;9.636;2024-03-08T04:31:59;7.50;;;4.18;;
70850;SDS011;58475;49.662;9.636;2024-03-08T04:34:25;7.70;;;4.25;;
70850;SDS011;58475;49.662;9.636;2024-03-08T04:36:52;7.22;;;3.22;;
70850;SDS011;58475;49.662;9.636;2024-03-08T04:39:18;7.38;;;3.60;;
70850;SDS011;58475;49.662;9.636;2024-03-08T04:41:43;6.03;;;3.55;;
70850;SDS011;58475;49.662;9.636;2024-03-08T04:44:10;7.18;;;3.25;;
70850;SDS011;58475;49.662;9.636;2024-03-08T04:46:36;6.00;;;3.70;;
70850;SDS011;58475;49.662;9.636;2024-03-08T04:49:01;6.72;;;4.18;;
70850;SDS011;58475;49.662;9.636;2024-03-08T04:51:27;5.18;;;3.50;;
70850;SDS011;58475;49.662;9.636;2024-03-08T04:53:52;4.80;;;3.30;;
70850;SDS011;58475;49.662;9.636;2024-03-08T04:56:18;3.78;;;2.92;;
70850;SDS011;58475;49.662;9.636;2024-03-08T04:58:44;6.25;;;3.47;;
70850;SDS011;58475;49.662;9.636;2024-03-08T05:01:11;5.35;;;3.90;;
70850;SDS011;58475;49.662;9.636;2024-03-08T05:03:37;5.78;;;3.60;;
70850;SDS011;58475;49.662;9.636;2024-03-08T05:06:03;4.82;;;3.25;;
70850;SDS011;58475;49.662;9.636;2024-03-08T05:08:29;5.43;;;3.58;;
70850;SDS011;58475;49.662;9.636;2024-03-08T05:10:54;9.02;;;4.28;;
70850;SDS011;58475;49.662;9.636;2024-03-08T05:13:20;6.10;;;4.13;;
70850;SDS011;58475;49.662;9.636;2024-03-08T05:15:48;7.53;;;4.85;;
70850;SDS011;58475;49.662;9.636;2024-03-08T05:18:15;6.72;;;3.83;;
70850;SDS011;58475;49.662;9.636;2024-03-08T05:20:40;9.20;;;4.20;;
70850;SDS011;58475;49.662;9.636;2024-03-08T05:23:06;6.25;;;4.38;;
70850;SDS011;58475;49.662;9.636;2024-03-08T05:25:32;8.27;;;3.72;;
70850;SDS011;58475;49.662;9.636;2024-03-08T05:27:57;6.30;;;4.03;;
70850;SDS011;58475;49.662;9.636;2024-03-08T05:30:23;7.88;;;4.47;;
70850;SDS011;58475;49.662;9.636;2024-03-08T05:32:48;7.82;;;4.20;;
70850;SDS011;58475;49.662;9.636;2024-03-08T05:35:13;7.60;;;3.85;;
70850;SDS011;58475;49.662;9.636;2024-03-08T05:37:41;6.07;;;3.70;;
70850;SDS011;58475;49.662;9.636;2024-03-08T05:40:07;4.63;;;3.10;;
70850;SDS011;58475;49.662;9.636;2024-03-08T05:42:34;3.20;;;2.30;;
70850;SDS011;58475;49.662;9.636;2024-03-08T05:45:00;5.35;;;3.70;;
70850;SDS011;58475;49.662;9.636;2024-03-08T05:47:25;5.68;;;3.30;;
70850;SDS011;58475;49.662;9.636;2024-03-08T05:49:51;6.07;;;3.22;;
70850;SDS011;58475;49.662;9.636;2024-03-08T05:52:18;5.80;;;3.55;;
70850;SDS011;58475;49.662;9.636;2024-03-08T05:54:44;5.88;;;3.45;;
70850;SDS011;58475;49.662;9.636;2024-03-08T05:57:10;4.97;;;2.92;;
70850;SDS011;58475;49.662;9.636;2024-03-08T05:59:36;6.53;;;4.68;;
70850;SDS011;58475;49.662;9.636;2024-03-08T06:02:01;6.72;;;4.10;;
70850;SDS011;58475;49.662;9.636;2024-03-08T06:04:27;4.72;;;3.40;;
70850;SDS011;58475;49.662;9.636;2024-03-08T06:06:52;5.10;;;3.30;;
70850;SDS011;58475;49.662;9.636;2024-03-08T06:09:20;7.10;;;3.90;;
70850;SDS011;58475;49.662;9.636;2024-03-08T06:11:48;6.03;;;4.82;;
70850;SDS011;58475;49.662;9.636;2024-03-08T06:14:13;6.30;;;3.38;;
70850;SDS011;58475;49.662;9.636;2024-03-08T06:16:41;6.97;;;4.30;;
70850;SDS011;58475;49.662;9.636;2024-03-08T06:19:06;10.77;;;5.00;;
70850;SDS011;58475;49.662;9.636;2024-03-08T06:21:33;7.57;;;4.60;;
70850;SDS011;58475;49.662;9.636;2024-03-08T06:23:58;7.13;;;3.92;;
70850;SDS011;58475;49.662;9.636;2024-03-08T06:26:24;6.03;;;3.88;;
70850;SDS011;58475;49.662;9.636;2024-03-08T06:28:50;5.88;;;2.97;;
70850;SDS011;58475;49.662;9.636;2024-03-08T06:31:16;4.80;;;3.40;;
70850;SDS011;58475;49.662;9.636;2024-03-08T06:33:41;5.88;;;3.60;;
70850;SDS011;58475;49.662;9.636;2024-03-08T06:36:07;8.40;;;5.00;;
70850;SDS011;58475;49.662;9.636;2024-03-08T06:38:34;6.85;;;4.00;;
70850;SDS011;58475;49.662;9.636;2024-03-08T06:40:59;9.85;;;5.18;;
70850;SDS011;58475;49.662;9.636;2024-03-08T06:43:28;9.05;;;4.72;;
70850;SDS011;58475;49.662;9.636;2024-03-08T06:45:59;6.28;;;3.78;;
70850;SDS011;58475;49.662;9.636;2024-03-08T06:48:24;6.38;;;3.50;;
70850;SDS011;58475;49.662;9.636;2024-03-08T06:50:49;6.22;;;3.88;;
70850;SDS011;58475;49.662;9.636;2024-03-08T06:53:15;5.72;;;3.42;;
70850;SDS011;58475;49.662;9.636;2024-03-08T06:55:42;8.63;;;3.90;;
70850;SDS011;58475;49.662;9.636;2024-03-08T06:58:07;9.38;;;4.75;;
70850;SDS011;58475;49.662;9.636;2024-03-08T07:00:33;7.15;;;4.18;;
70850;SDS011;58475;49.662;9.636;2024-03-08T07:02:58;7.50;;;4.57;;
70850;SDS011;58475;49.662;9.636;2024-03-08T07:05:27;8.32;;;4.45;;
70850;SDS011;58475;49.662;9.636;2024-03-08T07:07:53;7.18;;;4.50;;
70850;SDS011;58475;49.662;9.636;2024-03-08T07:10:20;5.60;;;3.83;;
70850;SDS011;58475;49.662;9.636;2024-03-08T07:12:46;7.95;;;4.60;;
70850;SDS011;58475;49.662;9.636;2024-03-08T07:15:11;7.60;;;4.03;;
70850;SDS011;58475;49.662;9.636;2024-03-08T07:17:41;8.55;;;4.88;;
70850;SDS011;58475;49.662;9.636;2024-03-08T07:20:09;10.35;;;4.70;;
70850;SDS011;58475;49.662;9.636;2024-03-08T07:22:37;9.13;;;5.25;;
70850;SDS011;58475;49.662;9.636;2024-03-08T07:25:04;9.38;;;4.68;;
70850;SDS011;58475;49.662;9.636;2024-03-08T07:27:50;7.43;;;4.40;;
70850;SDS011;58475;49.662;9.636;2024-03-08T07:30:23;7.90;;;4.22;;
70850;SDS011;58475;49.662;9.636;2024-03-08T07:33:08;6.90;;;4.00;;
70850;SDS011;58475;49.662;9.636;2024-03-08T07:35:37;8.60;;;4.15;;
70850;SDS011;58475;49.662;9.636;2024-03-08T07:38:12;8.60;;;4.32;;
70850;SDS011;58475;49.662;9.636;2024-03-08T07:40:38;6.43;;;3.92;;
70850;SDS011;58475;49.662;9.636;2024-03-08T07:43:09;5.95;;;3.75;;
70850;SDS011;58475;49.662;9.636;2024-03-08T07:45:36;10.70;;;5.35;;
70850;SDS011;58475;49.662;9.636;2024-03-08T07:48:02;9.07;;;4.97;;
70850;SDS011;58475;49.662;9.636;2024-03-08T07:50:28;12.13;;;4.90;;
70850;SDS011;58475;49.662;9.636;2024-03-08T07:52:54;8.70;;;5.47;;
70850;SDS011;58475;49.662;9.636;2024-03-08T07:55:19;8.82;;;5.35;;
70850;SDS011;58475;49.662;9.636;2024-03-08T07:57:45;7.25;;;4.35;;
70850;SDS011;58475;49.662;9.636;2024-03-08T08:00:12;10.88;;;4.63;;
70850;SDS011;58475;49.662;9.636;2024-03-08T08:02:43;7.25;;;4.72;;
70850;SDS011;58475;49.662;9.636;2024-03-08T08:05:10;7.90;;;5.05;;
70850;SDS011;58475;49.662;9.636;2024-03-08T08:07:36;10.05;;;5.85;;
70850;SDS011;58475;49.662;9.636;2024-03-08T08:10:01;9.32;;;5.10;;
70850;SDS011;58475;49.662;9.636;2024-03-08T08:12:26;10.10;;;4.93;;
70850;SDS011;58475;49.662;9.636;2024-03-08T08:14:54;8.27;;;4.75;;
70850;SDS011;58475;49.662;9.636;2024-03-08T08:17:19;6.82;;;3.88;;
70850;SDS011;58475;49.662;9.636;2024-03-08T08:19:45;10.85;;;5.45;;
70850;SDS011;58475;49.662;9.636;2024-03-08T08:22:11;10.90;;;4.35;;
70850;SDS011;58475;49.662;9.636;2024-03-08T08:24:36;7.30;;;4.28;;
70850;SDS011;58475;49.662;9.636;2024-03-08T08:27:02;8.15;;;4.68;;
70850;SDS011;58475;49.662;9.636;2024-03-08T08:29:28;9.68;;;5.57;;
70850;SDS011;58475;49.662;9.636;2024-03-08T08:31:53;9.75;;;5.25;;
70850;SDS011;58475;49.662;9.636;2024-03-08T08:34:19;10.55;;;5.40;;
70850;SDS011;58475;49.662;9.636;2024-03-08T08:36:44;11.93;;;4.60;;
70850;SDS011;58475;49.662;9.636;2024-03-08T08:39:10;7.80;;;5.57;;
70850;SDS011;58475;49.662;9.636;2024-03-08T08:41:38;10.40;;;5.25;;
70850;SDS011;58475;49.662;9.636;2024-03-08T08:44:06;10.63;;;5.40;;
70850;SDS011;58475;49.662;9.636;2024-03-08T08:46:35;11.98;;;5.72;;
70850;SDS011;58475;49.662;9.636;2024-03-08T08:49:02;10.90;;;5.63;;
70850;SDS011;58475;49.662;9.636;2024-03-08T08:51:28;12.35;;;6.18;;
70850;SDS011;58475;49.662;9.636;2024-03-08T08:53:53;10.48;;;6.07;;
70850;SDS011;58475;49.662;9.636;2024-03-08T08:56:21;10.27;;;6.13;;
70850;SDS011;58475;49.662;9.636;2024-03-08T08:58:47;12.27;;;6.93;;
70850;SDS011;58475;49.662;9.636;2024-03-08T09:01:14;13.23;;;6.85;;
70850;SDS011;58475;49.662;9.636;2024-03-08T09:03:39;12.15;;;6.40;;
70850;SDS011;58475;49.662;9.636;2024-03-08T09:06:11;9.85;;;5.90;;
70850;SDS011;58475;49.662;9.636;2024-03-08T09:08:38;11.48;;;5.13;;
70850;SDS011;58475;49.662;9.636;2024-03-08T09:11:06;9.80;;;6.20;;
70850;SDS011;58475;49.662;9.636;2024-03-08T09:13:32;11.15;;;5.93;;
70850;SDS011;58475;49.662;9.636;2024-03-08T09:15:58;9.38;;;5.40;;
70850;SDS011;58475;49.662;9.636;2024-03-08T09:18:24;10.95;;;5.70;;
70850;SDS011;58475;49.662;9.636;2024-03-08T09:20:50;9.73;;;5.15;;
70850;SDS011;58475;49.662;9.636;2024-03-08T09:23:16;12.40;;;6.35;;
70850;SDS011;58475;49.662;9.636;2024-03-08T09:25:44;11.82;;;5.72;;
70850;SDS011;58475;49.662;9.636;2024-03-08T09:28:10;9.57;;;5.18;;
70850;SDS011;58475;49.662;9.636;2024-03-08T09:30:37;10.32;;;4.97;;
70850;SDS011;58475;49.662;9.636;2024-03-08T09:33:03;9.32;;;5.55;;
70850;SDS011;58475;49.662;9.636;2024-03-08T09:35:29;11.88;;;6.05;;
70850;SDS011;58475;49.662;9.636;2024-03-08T09:37:55;12.18;;;5.32;;
70850;SDS011;58475;49.662;9.636;2024-03-08T09:40:21;10.35;;;5.90;;
70850;SDS011;58475;49.662;9.636;2024-03-08T09:42:48;7.47;;;4.63;;
70850;SDS011;58475;49.662;9.636;2024-03-08T09:45:14;9.98;;;5.20;;
70850;SDS011;58475;49.662;9.636;2024-03-08T09:47:42;11.20;;;5.10;;
70850;SDS011;58475;49.662;9.636;2024-03-08T09:50:09;9.00;;;4.88;;
70850;SDS011;58475;49.662;9.636;2024-03-08T09:52:38;8.73;;;5.18;;
70850;SDS011;58475;49.662;9.636;2024-03-08T09:55:08;10.32;;;5.47;;
70850;SDS011;58475;49.662;9.636;2024-03-08T09:57:36;9.98;;;5.18;;
70850;SDS011;58475;49.662;9.636;2024-03-08T10:00:02;10.50;;;6.22;;
70850;SDS011;58475;49.662;9.636;2024-03-08T10:02:36;11.00;;;6.05;;
70850;SDS011;58475;49.662;9.636;2024-03-08T10:05:02;10.15;;;5.70;;
70850;SDS011;58475;49.662;9.636;2024-03-08T10:07:28;9.45;;;5.07;;
70850;SDS011;58475;49.662;9.636;2024-03-08T10:09:54;12.85;;;5.53;;
70850;SDS011;58475;49.662;9.636;2024-03-08T10:12:19;9.57;;;5.20;;
70850;SDS011;58475;49.662;9.636;2024-03-08T10:14:45;10.75;;;5.15;;
70850;SDS011;58475;49.662;9.636;2024-03-08T10:17:11;9.90;;;5.00;;
70850;SDS011;58475;49.662;9.636;2024-03-08T10:19:37;11.52;;;6.05;;
70850;SDS011;58475;49.662;9.636;2024-03-08T10:22:02;9.98;;;5.68;;
70850;SDS011;58475;49.662;9.636;2024-03-08T10:24:29;10.77;;;5.70;;
70850;SDS011;58475;49.662;9.636;2024-03-08T10:26:58;10.68;;;5.80;;
70850;SDS011;58475;49.662;9.636;2024-03-08T10:29:26;10.82;;;6.18;;
70850;SDS011;58475;49.662;9.636;2024-03-08T10:31:51;9.52;;;5.43;;
70850;SDS011;58475;49.662;9.636;2024-03-08T10:34:16;9.95;;;5.97;;
70850;SDS011;58475;49.662;9.636;2024-03-08T10:36:42;10.23;;;5.93;;
70850;SDS011;58475;49.662;9.636;2024-03-08T10:39:16;11.43;;;6.00;;
70850;SDS011;58475;49.662;9.636;2024-03-08T10:41:45;9.88;;;5.68;;
70850;SDS011;58475;49.662;9.636;2024-03-08T10:44:26;10.30;;;6.30;;
70850;SDS011;58475;49.662;9.636;2024-03-08T10:47:12;12.18;;;6.53;;
70850;SDS011;58475;49.662;9.636;2024-03-08T10:49:51;11.48;;;5.18;;
70850;SDS011;58475;49.662;9.636;2024-03-08T10:52:20;10.02;;;5.20;;
70850;SDS011;58475;49.662;9.636;2024-03-08T10:54:47;13.80;;;7.35;;
70850;SDS011;58475;49.662;9.636;2024-03-08T10:57:13;10.95;;;5.70;;
70850;SDS011;58475;49.662;9.636;2024-03-08T10:59:42;10.70;;;5.80;;
70850;SDS011;58475;49.662;9.636;2024-03-08T11:02:10;11.13;;;6.43;;
70850;SDS011;58475;49.662;9.636;2024-03-08T11:04:37;15.65;;;7.35;;
70850;SDS011;58475;49.662;9.636;2024-03-08T11:07:03;10.88;;;6.25;;
70850;SDS011;58475;49.662;9.636;2024-03-08T11:14:44;10.93;;;6.20;;
70850;SDS011;58475;49.662;9.636;2024-03-08T11:17:14;9.60;;;5.47;;
70850;SDS011;58475;49.662;9.636;2024-03-08T11:19:45;13.77;;;6.82;;
70850;SDS011;58475;49.662;9.636;2024-03-08T11:22:19;12.50;;;6.43;;
70850;SDS011;58475;49.662;9.636;2024-03-08T11:24:48;10.65;;;5.97;;
70850;SDS011;58475;49.662;9.636;2024-03-08T11:27:14;10.95;;;6.32;;
70850;SDS011;58475;49.662;9.636;2024-03-08T11:29:40;12.68;;;6.50;;
70850;SDS011;58475;49.662;9.636;2024-03-08T11:32:09;13.45;;;7.45;;
70850;SDS011;58475;49.662;9.636;2024-03-08T11:34:36;12.32;;;6.97;;
70850;SDS011;58475;49.662;9.636;2024-03-08T11:37:06;11.25;;;5.78;;
70850;SDS011;58475;49.662;9.636;2024-03-08T11:39:38;12.18;;;7.10;;
70850;SDS011;58475;49.662;9.636;2024-03-08T11:42:05;12.25;;;6.50;;
70850;SDS011;58475;49.662;9.636;2024-03-08T11:44:31;11.02;;;6.25;;
70850;SDS011;58475;49.662;9.636;2024-03-08T11:46:57;10.27;;;5.82;;
70850;SDS011;58475;49.662;9.636;2024-03-08T11:49:22;12.00;;;5.60;;
70850;SDS011;58475;49.662;9.636;2024-03-08T11:51:51;11.02;;;6.05;;
70850;SDS011;58475;49.662;9.636;2024-03-08T11:54:18;12.85;;;6.75;;
70850;SDS011;58475;49.662;9.636;2024-03-08T11:56:44;11.40;;;5.90;;
70850;SDS011;58475;49.662;9.636;2024-03-08T11:59:12;11.38;;;6.57;;
70850;SDS011;58475;49.662;9.636;2024-03-08T12:01:38;11.23;;;6.28;;
70850;SDS011;58475;49.662;9.636;2024-03-08T12:04:04;12.38;;;6.90;;
70850;SDS011;58475;49.662;9.636;2024-03-08T12:06:37;10.35;;;5.57;;
70850;SDS011;58475;49.662;9.636;2024-03-08T12:09:12;11.88;;;6.47;;
70850;SDS011;58475;49.662;9.636;2024-03-08T12:11:39;11.15;;;6.28;;
70850;SDS011;58475;49.662;9.636;2024-03-08T12:14:06;13.13;;;6.32;;
70850;SDS011;58475;49.662;9.636;2024-03-08T12:16:31;9.95;;;5.65;;
70850;SDS011;58475;49.662;9.636;2024-03-08T12:18:57;11.05;;;5.75;;
70850;SDS011;58475;49.662;9.636;2024-03-08T12:21:23;9.95;;;5.47;;
70850;SDS011;58475;49.662;9.636;2024-03-08T12:24:06;11.48;;;6.13;;
70850;SDS011;58475;49.662;9.636;2024-03-08T12:26:34;10.38;;;5.45;;
70850;SDS011;58475;49.662;9.636;2024-03-08T12:29:17;9.65;;;5.47;;
70850;SDS011;58475;49.662;9.636;2024-03-08T12:31:53;8.75;;;5.53;;
70850;SDS011;58475;49.662;9.636;2024-03-08T12:34:21;9.32;;;5.28;;
70850;SDS011;58475;49.662;9.636;2024-03-08T12:36:47;10.82;;;5.50;;
70850;SDS011;58475;49.662;9.636;2024-03-08T12:42:03;10.48;;;5.50;;
70850;SDS011;58475;49.662;9.636;2024-03-08T12:44:29;9.68;;;5.15;;
70850;SDS011;58475;49.662;9.636;2024-03-08T12:46:54;10.63;;;5.50;;
70850;SDS011;58475;49.662;9.636;2024-03-08T12:49:20;11.57;;;6.13;;
70850;SDS011;58475;49.662;9.636;2024-03-08T12:51:47;9.77;;;5.40;;
70850;SDS011;58475;49.662;9.636;2024-03-08T12:54:13;10.27;;;5.47;;
70850;SDS011;58475;49.662;9.636;2024-03-08T12:56:39;8.50;;;4.47;;
70850;SDS011;58475;49.662;9.636;2024-03-08T12:59:05;10.20;;;5.50;;
70850;SDS011;58475;49.662;9.636;2024-03-08T13:01:31;10.05;;;5.57;;
70850;SDS011;58475;49.662;9.636;2024-03-08T13:04:00;9.85;;;5.40;;
70850;SDS011;58475;49.662;9.636;2024-03-08T13:06:28;8.90;;;4.55;;
70850;SDS011;58475;49.662;9.636;2024-03-08T13:08:54;9.43;;;5.15;;
70850;SDS011;58475;49.662;9.636;2024-03-08T13:11:20;8.98;;;5.05;;
70850;SDS011;58475;49.662;9.636;2024-03-08T13:13:46;9.27;;;4.72;;
70850;SDS011;58475;49.662;9.636;2024-03-08T13:16:11;11.23;;;5.30;;
70850;SDS011;58475;49.662;9.636;2024-03-08T13:18:41;10.27;;;5.60;;
70850;SDS011;58475;49.662;9.636;2024-03-08T13:21:09;9.10;;;4.75;;
70850;SDS011;58475;49.662;9.636;2024-03-08T13:23:36;9.75;;;5.35;;
70850;SDS011;58475;49.662;9.636;2024-03-08T13:26:08;9.63;;;4.75;;
70850;SDS011;58475;49.662;9.636;2024-03-08T13:28:35;9.60;;;5.72;;
70850;SDS011;58475;49.662;9.636;2024-03-08T13:31:05;9.77;;;5.43;;
70850;SDS011;58475;49.662;9.636;2024-03-08T13:33:38;8.32;;;4.63;;
70850;SDS011;58475;49.662;9.636;2024-03-08T13:36:05;9.15;;;4.80;;
70850;SDS011;58475;49.662;9.636;2024-03-08T13:38:32;9.10;;;5.22;;
70850;SDS011;58475;49.662;9.636;2024-03-08T13:41:00;8.18;;;4.38;;
70850;SDS011;58475;49.662;9.636;2024-03-08T13:43:26;7.82;;;4.60;;
70850;SDS011;58475;49.662;9.636;2024-03-08T13:45:53;10.70;;;5.18;;
70850;SDS011;58475;49.662;9.636;2024-03-08T13:48:19;7.07;;;4.22;;
70850;SDS011;58475;49.662;9.636;2024-03-08T13:50:45;11.13;;;5.15;;
70850;SDS011;58475;49.662;9.636;2024-03-08T13:53:10;9.30;;;4.82;;
70850;SDS011;58475;49.662;9.636;2024-03-08T13:55:36;9.45;;;4.90;;
70850;SDS011;58475;49.662;9.636;2024-03-08T13:58:01;10.73;;;5.18;;
70850;SDS011;58475;49.662;9.636;2024-03-08T14:00:27;7.40;;;4.60;;
70850;SDS011;58475;49.662;9.636;2024-03-08T14:02:58;9.95;;;5.10;;
70850;SDS011;58475;49.662;9.636;2024-03-08T14:05:24;10.63;;;5.05;;
70850;SDS011;58475;49.662;9.636;2024-03-08T14:07:49;7.75;;;4.88;;
70850;SDS011;58475;49.662;9.636;2024-03-08T14:10:15;8.75;;;4.82;;
70850;SDS011;58475;49.662;9.636;2024-03-08T14:12:40;7.55;;;4.22;;
70850;SDS011;58475;49.662;9.636;2024-03-08T14:15:08;10.25;;;4.82;;
70850;SDS011;58475;49.662;9.636;2024-03-08T14:17:33;12.85;;;7.25;;
70850;SDS011;58475;49.662;9.636;2024-03-08T14:19:59;7.95;;;3.97;;
70850;SDS011;58475;49.662;9.636;2024-03-08T14:22:24;7.72;;;3.95;;
70850;SDS011;58475;49.662;9.636;2024-03-08T14:24:49;8.23;;;4.70;;
70850;SDS011;58475;49.662;9.636;2024-03-08T14:27:16;6.30;;;3.65;;
70850;SDS011;58475;49.662;9.636;2024-03-08T14:29:43;9.90;;;4.20;;
70850;SDS011;58475;49.662;9.636;2024-03-08T14:32:09;8.07;;;4.25;;
70850;SDS011;58475;49.662;9.636;2024-03-08T14:34:35;8.00;;;4.25;;
70850;SDS011;58475;49.662;9.636;2024-03-08T14:37:01;8.38;;;4.45;;
70850;SDS011;58475;49.662;9.636;2024-03-08T14:39:30;7.03;;;3.58;;
70850;SDS011;58475;49.662;9.636;2024-03-08T14:41:55;7.55;;;4.15;;
70850;SDS011;58475;49.662;9.636;2024-03-08T14:44:23;6.60;;;3.55;;
70850;SDS011;58475;49.662;9.636;2024-03-08T14:46:51;8.65;;;3.95;;
70850;SDS011;58475;49.662;9.636;2024-03-08T14:49:21;8.50;;;4.15;;
70850;SDS011;58475;49.662;9.636;2024-03-08T14:51:47;7.50;;;3.42;;